Time;durP1;ratioP1;P1;durP2;ratioP2;P2;SDS_P1;SDS_P2;PMS_P1;PMS_P2;Temp;Humidity;BMP_temperature;BMP_pressure;BME280_temperature;BME280_humidity;BME280_pressure;Samples;Min_cycle;Max_cycle;Signal;HPM_P1;HPM_P2
2022/07/05 00:00:29;;;;;;;;;;;;;;;27.51;60.69;99627.56;4443913;32;22333;-93
2022/07/05 00:02:55;;;;;;;;;;;;;;;27.46;60.68;99636.06;4444615;32;19985;-93
2022/07/05 00:05:20;;;;;;;;;;;;;;;27.29;60.67;99630.78;4457303;32;20023;-92
2022/07/05 00:07:45;;;;;;;;;;;;;;;27.33;60.66;99632.97;4444586;32;20007;-93
2022/07/05 00:10:10;;;;;;;;;;;;;;;27.46;60.68;99635.22;4462293;32;20317;-93
2022/07/05 00:12:35;;;;;;;;;;;;;;;27.37;60.67;99626.31;4433039;32;25080;-92
2022/07/05 00:15:01;;;;;;;;;;;;;;;27.24;60.66;99625.94;4443891;32;20030;-94
2022/07/05 00:17:26;;;;;;;;;;;;;;;27.10;60.65;99621.16;4444063;32;20042;-90
2022/07/05 00:19:51;;;;;;;;;;;;;;;27.09;60.66;99609.63;4443838;32;20427;-89
2022/07/05 00:22:17;;;;;;;;;;;;;;;26.93;60.65;99598.81;4443773;32;19973;-90
2022/07/05 00:24:42;;;;;;;;;;;;;;;26.85;60.64;99593.41;4444319;32;20024;-90
2022/07/05 00:27:07;;;;;;;;;;;;;;;26.86;60.64;99587.09;4443960;32;20005;-92
2022/07/05 00:29:32;;;;;;;;;;;;;;;26.80;60.65;99585.03;4443711;32;19981;-91
2022/07/05 00:31:58;;;;;;;;;;;;;;;26.84;60.65;99583.72;4453415;32;20328;-93
2022/07/05 00:34:23;;;;;;;;;;;;;;;26.72;60.64;99574.28;4445968;32;20235;-92
2022/07/05 00:36:48;;;;;;;;;;;;;;;26.71;60.65;99576.13;4446047;32;20001;-92
2022/07/05 00:39:13;;;;;;;;;;;;;;;26.69;60.64;99570.09;4445827;32;19985;-90
2022/07/05 00:41:39;;;;;;;;;;;;;;;26.72;60.64;99575.13;4445886;32;20003;-90
2022/07/05 00:44:08;;;;;;;;;;;;;;;26.64;60.64;99575.09;4445731;32;20017;-91
2022/07/05 00:46:33;;;;;;;;;;;;;;;26.50;60.63;99579.16;4446236;32;20091;-91
2022/07/05 00:48:58;;;;;;;;;;;;;;;26.39;60.63;99578.56;4445794;32;19984;-89
2022/07/05 00:51:24;;;;;;;;;;;;;;;26.46;60.62;99567.09;4445501;32;20009;-89
2022/07/05 00:53:49;;;;;;;;;;;;;;;26.41;60.63;99564.06;4445978;32;20031;-91
2022/07/05 00:56:14;;;;;;;;;;;;;;;26.37;60.62;99565.38;4456485;32;20345;-86
2022/07/05 00:58:40;;;;;;;;;;;;;;;26.38;60.62;99574.22;4443650;32;19976;-85
2022/07/05 01:01:05;;;;;;;;;;;;;;;26.30;60.61;99583.81;4470228;32;20237;-86
2022/07/05 01:03:31;;;;;;;;;;;;;;;26.37;60.62;99580.53;4470401;32;19996;-85
2022/07/05 01:05:56;;;;;;;;;;;;;;;26.43;60.62;99572.75;4442851;32;20000;-85
2022/07/05 01:08:24;;;;;;;;;;;;;;;26.36;60.62;99574.37;4469546;32;28406;-86
2022/07/05 01:10:50;;;;;;;;;;;;;;;26.48;60.63;99570.44;4456279;32;20021;-86
2022/07/05 01:13:15;;;;;;;;;;;;;;;26.40;60.62;99575.72;4456307;32;19997;-85
2022/07/05 01:15:41;;;;;;;;;;;;;;;26.36;60.62;99571.69;4456057;32;20007;-84
2022/07/05 01:18:06;;;;;;;;;;;;;;;26.46;60.62;99574.25;4455437;32;30490;-85
2022/07/05 01:20:31;;;;;;;;;;;;;;;26.41;60.63;99563.22;4442839;32;19992;-84
2022/07/05 01:22:59;;;;;;;;;;;;;;;26.41;60.62;99571.22;4456071;32;19996;-84
2022/07/05 01:25:25;;;;;;;;;;;;;;;26.42;60.63;99564.91;4455918;32;20007;-84
2022/07/05 01:27:50;;;;;;;;;;;;;;;26.36;60.62;99558.34;4456125;32;19977;-85
2022/07/05 01:30:15;;;;;;;;;;;;;;;26.37;60.62;99561.88;4443792;32;20292;-84
2022/07/05 01:32:41;;;;;;;;;;;;;;;26.44;60.62;99558.41;4456783;32;20302;-85
2022/07/05 01:35:07;;;;;;;;;;;;;;;26.34;60.62;99556.81;4456942;32;19993;-85
2022/07/05 01:37:32;;;;;;;;;;;;;;;26.43;60.62;99556.72;4457118;32;20080;-85
2022/07/05 01:39:57;;;;;;;;;;;;;;;26.39;60.63;99560.72;4456554;32;22917;-86
2022/07/05 01:42:23;;;;;;;;;;;;;;;26.41;60.62;99556.06;4456833;32;20298;-85
2022/07/05 01:44:48;;;;;;;;;;;;;;;26.37;60.61;99561.88;4456235;32;19993;-86
2022/07/05 01:47:13;;;;;;;;;;;;;;;26.47;60.63;99557.25;4443669;32;21062;-85
2022/07/05 01:49:40;;;;;;;;;;;;;;;26.37;60.62;99551.19;4456885;32;19972;-85
2022/07/05 01:52:09;;;;;;;;;;;;;;;26.48;60.63;99548.25;4456879;32;20057;-85
2022/07/05 01:54:35;;;;;;;;;;;;;;;26.51;60.63;99540.81;4456878;32;20011;-85
2022/07/05 01:57:00;;;;;;;;;;;;;;;26.54;60.62;99545.81;4444045;32;20073;-87
2022/07/05 01:59:26;;;;;;;;;;;;;;;26.60;60.63;99553.19;4456568;32;25429;-86
2022/07/05 02:01:51;;;;;;;;;;;;;;;26.70;60.63;99552.25;4457205;32;20093;-86
2022/07/05 02:04:16;;;;;;;;;;;;;;;26.54;60.62;99561.84;4443571;32;25138;-86
2022/07/05 02:06:41;;;;;;;;;;;;;;;26.57;60.63;99552.69;4443342;32;27104;-86
2022/07/05 02:09:07;;;;;;;;;;;;;;;26.55;60.63;99558.19;4443812;32;19972;-87
2022/07/05 02:11:32;;;;;;;;;;;;;;;26.48;60.63;99551.75;4444053;32;20369;-85
2022/07/05 02:13:57;;;;;;;;;;;;;;;26.64;60.63;99550.22;4444000;32;20050;-86
2022/07/05 02:16:23;;;;;;;;;;;;;;;26.69;60.64;99551.41;4443834;32;20011;-86
2022/07/05 02:18:48;;;;;;;;;;;;;;;26.72;60.64;99552.94;4443789;32;19993;-85
2022/07/05 02:21:14;;;;;;;;;;;;;;;26.77;60.64;99542.63;4442736;32;32491;-84
2022/07/05 02:23:39;;;;;;;;;;;;;;;26.87;60.65;99530.84;4443056;32;28794;-86
2022/07/05 02:26:04;;;;;;;;;;;;;;;26.79;60.64;99527.28;4443227;32;25615;-85
2022/07/05 02:28:30;;;;;;;;;;;;;;;27.00;60.65;99530.44;4456707;32;19995;-85
2022/07/05 02:30:55;;;;;;;;;;;;;;;26.87;60.65;99528.16;4443531;32;20335;-85
2022/07/05 02:33:20;;;;;;;;;;;;;;;26.96;60.65;99536.22;4456251;32;19984;-85
2022/07/05 02:35:45;;;;;;;;;;;;;;;26.73;60.64;99535.91;4443180;32;23122;-85
2022/07/05 02:38:11;;;;;;;;;;;;;;;26.78;60.63;99541.66;4455910;32;23678;-84
2022/07/05 02:40:36;;;;;;;;;;;;;;;26.71;60.63;99548.59;4442801;32;29621;-85
2022/07/05 02:43:01;;;;;;;;;;;;;;;26.71;60.64;99554.75;4456256;32;19999;-86
2022/07/05 02:45:26;;;;;;;;;;;;;;;26.78;60.63;99560.34;4469941;32;29468;-86
2022/07/05 02:47:51;;;;;;;;;;;;;;;26.98;60.65;99551.13;4443322;32;25407;-85
2022/07/05 02:50:17;;;;;;;;;;;;;;;26.76;60.64;99555.16;4456577;32;19973;-85
2022/07/05 02:52:42;;;;;;;;;;;;;;;26.57;60.64;99550.84;4455978;32;20406;-85
2022/07/05 02:55:07;;;;;;;;;;;;;;;26.42;60.62;99544.37;4455935;32;27193;-85
2022/07/05 02:57:33;;;;;;;;;;;;;;;26.48;60.63;99551.75;4470261;32;20273;-85
2022/07/05 02:59:58;;;;;;;;;;;;;;;26.39;60.63;99549.19;4442874;32;19985;-84
2022/07/05 03:02:23;;;;;;;;;;;;;;;26.29;60.61;99541.25;4470724;32;19977;-85
2022/07/05 03:04:48;;;;;;;;;;;;;;;26.15;60.61;99539.13;4456183;32;19976;-85
2022/07/05 03:07:14;;;;;;;;;;;;;;;26.20;60.61;99540.34;4456619;32;19984;-85
2022/07/05 03:09:39;;;;;;;;;;;;;;;25.92;60.59;99533.41;4470627;32;20019;-85
2022/07/05 03:12:04;;;;;;;;;;;;;;;26.01;60.60;99536.00;4456751;32;20027;-85
2022/07/05 03:14:30;;;;;;;;;;;;;;;26.01;60.60;99548.50;4456480;32;19977;-85
2022/07/05 03:16:55;;;;;;;;;;;;;;;25.90;60.59;99541.56;4455992;32;23135;-86
2022/07/05 03:19:20;;;;;;;;;;;;;;;25.75;60.59;99544.91;4456149;32;19984;-85
2022/07/05 03:21:45;;;;;;;;;;;;;;;25.95;60.60;99533.94;4455600;32;21885;-85
2022/07/05 03:24:10;;;;;;;;;;;;;;;26.06;60.60;99522.22;4455904;32;19987;-85
2022/07/05 03:26:36;;;;;;;;;;;;;;;25.84;60.59;99534.19;4470838;32;20010;-86
2022/07/05 03:29:01;;;;;;;;;;;;;;;25.98;60.60;99530.13;4443944;32;19999;-86
2022/07/05 03:31:26;;;;;;;;;;;;;;;25.70;60.58;99548.88;4470744;32;20259;-86
2022/07/05 03:33:51;;;;;;;;;;;;;;;25.62;60.59;99562.09;4456437;32;20027;-86
2022/07/05 03:36:17;;;;;;;;;;;;;;;25.51;60.57;99570.28;4443325;32;20001;-86
2022/07/05 03:38:42;;;;;;;;;;;;;;;25.38;60.57;99578.62;4456561;32;20012;-86
2022/07/05 03:41:07;;;;;;;;;;;;;;;25.46;60.57;99571.72;4456302;32;19977;-86
2022/07/05 03:43:32;;;;;;;;;;;;;;;25.43;60.57;99572.00;4443604;32;20024;-85
2022/07/05 03:45:58;;;;;;;;;;;;;;;25.43;60.57;99590.66;4455820;32;26056;-85
2022/07/05 03:48:23;;;;;;;;;;;;;;;25.45;60.58;99592.19;4470593;32;19993;-86
2022/07/05 03:50:48;;;;;;;;;;;;;;;25.64;60.58;99596.59;4443164;32;26522;-86
2022/07/05 03:53:13;;;;;;;;;;;;;;;25.65;60.58;99595.59;4456763;32;19991;-85
2022/07/05 03:55:38;;;;;;;;;;;;;;;25.75;60.58;99595.56;4456477;32;20016;-87
2022/07/05 03:58:04;;;;;;;;;;;;;;;25.82;60.59;99602.84;4456450;32;20003;-85
2022/07/05 04:00:29;;;;;;;;;;;;;;;25.96;60.59;99601.47;4455688;32;31516;-85
2022/07/05 04:02:54;;;;;;;;;;;;;;;25.87;60.59;99608.56;4456440;32;19985;-85
2022/07/05 04:05:19;;;;;;;;;;;;;;;25.73;60.58;99608.19;4455920;32;23902;-84
2022/07/05 04:08:03;;;;;;;;;;;;;;;25.83;60.59;99615.19;4454552;32;30030;-83
2022/07/05 04:10:28;;;;;;;;;;;;;;;25.85;60.58;99610.53;4456309;32;19996;-85
2022/07/05 04:12:53;;;;;;;;;;;;;;;26.00;60.59;99601.00;4455957;32;19991;-85
2022/07/05 04:15:19;;;;;;;;;;;;;;;26.07;60.60;99598.59;4456132;32;19969;-85
2022/07/05 04:17:47;;;;;;;;;;;;;;;26.12;60.60;99595.47;4469824;32;27574;-85
2022/07/05 04:20:12;;;;;;;;;;;;;;;26.15;60.60;99601.31;4456253;32;20636;-85
2022/07/05 04:22:37;;;;;;;;;;;;;;;26.27;60.61;99591.28;4442989;32;19977;-87
2022/07/05 04:25:18;;;;;;;;;;;;;;;26.28;60.61;99585.78;4442819;32;20837;-86
2022/07/05 04:27:46;;;;;;;;;;;;;;;26.38;60.61;99591.06;4470275;32;20007;-86
2022/07/05 04:30:12;;;;;;;;;;;;;;;26.44;60.62;99586.94;4470355;32;20028;-86
2022/07/05 04:32:37;;;;;;;;;;;;;;;26.56;60.63;99583.88;4442945;32;19969;-85
2022/07/05 04:35:02;;;;;;;;;;;;;;;26.48;60.63;99583.78;4455762;32;20056;-86
2022/07/05 04:37:27;;;;;;;;;;;;;;;26.56;60.63;99577.69;4456340;32;19981;-87
2022/07/05 04:39:53;;;;;;;;;;;;;;;26.66;60.63;99570.41;4455336;32;20156;-87
2022/07/05 04:42:18;;;;;;;;;;;;;;;26.79;60.64;99578.88;4456615;32;23933;-95
2022/07/05 04:44:43;;;;;;;;;;;;;;;26.74;60.63;99591.84;4445288;32;19995;-95
2022/07/05 04:47:08;;;;;;;;;;;;;;;26.82;60.64;99585.72;4444977;32;20332;-95
2022/07/05 04:49:34;;;;;;;;;;;;;;;26.78;60.63;99581.69;4444903;32;20007;-95
2022/07/05 04:52:02;;;;;;;;;;;;;;;26.81;60.63;99576.03;4444796;32;20018;-95
2022/07/05 04:54:30;;;;;;;;;;;;;;;27.00;60.65;99570.53;4444785;32;20007;-92
2022/07/05 04:56:55;;;;;;;;;;;;;;;27.05;60.65;99576.22;4445123;32;19992;-94
2022/07/05 04:59:20;;;;;;;;;;;;;;;26.91;60.64;99572.25;4445028;32;19988;-96
2022/07/05 05:01:46;;;;;;;;;;;;;;;26.76;60.63;99571.19;4444823;32;19972;-94
2022/07/05 05:04:11;;;;;;;;;;;;;;;26.76;60.64;99573.00;4444637;32;20015;-96
2022/07/05 05:06:36;;;;;;;;;;;;;;;26.76;60.63;99570.34;4457907;32;19999;-95
2022/07/05 05:09:02;;;;;;;;;;;;;;;26.82;60.64;99567.03;4444543;32;20428;-96
2022/07/05 05:11:27;;;;;;;;;;;;;;;26.86;60.64;99571.91;4444658;32;20250;-95
2022/07/05 05:13:52;;;;;;;;;;;;;;;26.89;60.64;99568.91;4444624;32;20038;-93
2022/07/05 05:16:18;;;;;;;;;;;;;;;27.04;60.65;99568.38;4444710;32;20050;-94
2022/07/05 05:18:43;;;;;;;;;;;;;;;27.14;60.66;99571.75;4444387;32;20000;-94
2022/07/05 05:21:08;;;;;;;;;;;;;;;27.17;60.65;99566.91;4446742;32;19981;-95
2022/07/05 05:23:33;;;;;;;;;;;;;;;27.07;60.65;99565.38;4446000;32;19989;-93
2022/07/05 05:25:58;;;;;;;;;;;;;;;27.20;60.66;99568.44;4446224;32;19973;-93
2022/07/05 05:28:24;;;;;;;;;;;;;;;27.23;60.66;99568.13;4446754;32;20035;-94
2022/07/05 05:30:49;;;;;;;;;;;;;;;27.31;60.66;99567.31;4446649;32;20014;-93
2022/07/05 05:33:14;;;;;;;;;;;;;;;27.30;60.66;99571.84;4446667;32;19985;-91
2022/07/05 05:35:40;;;;;;;;;;;;;;;27.25;60.65;99571.47;4446830;32;20011;-92
2022/07/05 05:38:05;;;;;;;;;;;;;;;27.18;60.66;99571.25;4445274;32;20027;-86
2022/07/05 05:40:30;;;;;;;;;;;;;;;27.34;60.67;99583.88;4457153;32;19977;-85
2022/07/05 05:42:56;;;;;;;;;;;;;;;27.40;60.67;99577.88;4471347;32;20004;-86
2022/07/05 05:45:21;;;;;;;;;;;;;;;27.40;60.67;99582.37;4457353;32;19977;-85
2022/07/05 05:47:48;;;;;;;;;;;;;;;27.23;60.65;99578.00;4444524;32;19996;-85
2022/07/05 05:50:13;;;;;;;;;;;;;;;27.00;60.64;99586.53;4457235;32;19977;-85
2022/07/05 05:52:39;;;;;;;;;;;;;;;27.04;60.65;99590.56;4444297;32;19991;-85
2022/07/05 05:55:05;;;;;;;;;;;;;;;26.93;60.64;99596.13;4456444;32;28112;-86
2022/07/05 05:57:31;;;;;;;;;;;;;;;26.63;60.62;99589.44;4471393;32;19999;-85
2022/07/05 05:59:56;;;;;;;;;;;;;;;26.54;60.62;99601.88;4457187;32;19989;-85
2022/07/05 06:02:21;;;;;;;;;;;;;;;26.46;60.62;99607.13;4456559;32;27600;-85
2022/07/05 06:04:46;;;;;;;;;;;;;;;26.51;60.62;99606.69;4456638;32;23041;-85
2022/07/05 06:07:11;;;;;;;;;;;;;;;26.38;60.61;99612.41;4443645;32;25678;-85
2022/07/05 06:15:43;;;;;;;;;;;;;;;26.54;60.62;99609.91;4470869;32;20003;-86
2022/07/05 06:18:09;;;;;;;;;;;;;;;26.69;60.63;99606.66;4444004;32;19993;-85
2022/07/05 06:20:34;;;;;;;;;;;;;;;26.78;60.63;99595.88;4443774;32;20931;-85
2022/07/05 06:23:00;;;;;;;;;;;;;;;26.97;60.65;99600.16;4456646;32;19976;-85
2022/07/05 06:25:25;;;;;;;;;;;;;;;27.16;60.65;99605.31;4456667;32;19973;-85
2022/07/05 06:27:51;;;;;;;;;;;;;;;27.22;60.66;99598.53;4456826;32;19999;-86
2022/07/05 06:30:17;;;;;;;;;;;;;;;27.34;60.67;99599.06;4443750;32;20071;-85
2022/07/05 06:32:42;;;;;;;;;;;;;;;27.50;60.67;99607.16;4443279;32;19985;-86
2022/07/05 06:35:08;;;;;;;;;;;;;;;27.39;60.67;99607.44;4443696;32;19988;-85
2022/07/05 06:37:43;;;;;;;;;;;;;;;27.14;60.65;99614.50;4456857;32;19984;-86
2022/07/05 06:40:09;;;;;;;;;;;;;;;27.04;60.65;99603.94;4443828;32;20333;-85
2022/07/05 06:42:35;;;;;;;;;;;;;;;26.92;60.64;99599.81;4443391;32;20315;-85
2022/07/05 06:45:00;;;;;;;;;;;;;;;27.31;60.66;99604.75;4443722;32;19988;-86
2022/07/05 06:50:02;;;;;;;;;;;;;;;27.67;60.68;99595.56;4671629;26;19991;-87
2022/07/05 06:52:28;;;;;;;;;;;;;;;27.69;60.69;99590.06;4444390;32;20383;-88
2022/07/05 06:54:53;;;;;;;;;;;;;;;27.69;60.68;99582.87;4457212;32;19977;-86
2022/07/05 06:57:19;;;;;;;;;;;;;;;27.87;60.68;99579.22;4456687;32;24446;-88
2022/07/05 06:59:44;;;;;;;;;;;;;;;27.80;60.68;99574.53;4457199;32;19999;-87
2022/07/05 07:02:09;;;;;;;;;;;;;;;27.82;60.69;99583.22;4456526;32;23076;-87
2022/07/05 07:04:34;;;;;;;;;;;;;;;27.89;60.69;99578.06;4471289;32;20044;-88
2022/07/05 07:07:00;;;;;;;;;;;;;;;28.15;60.71;99588.63;4456921;32;28045;-87
2022/07/05 07:09:25;;;;;;;;;;;;;;;28.07;60.71;99580.59;4457215;32;19977;-87
2022/07/05 07:11:50;;;;;;;;;;;;;;;27.94;60.69;99585.62;4470432;32;27811;-85
2022/07/05 07:14:15;;;;;;;;;;;;;;;27.93;60.69;99578.59;4456910;32;20001;-86
2022/07/05 07:16:41;;;;;;;;;;;;;;;28.24;60.71;99574.28;4456737;32;20034;-86
2022/07/05 07:19:06;;;;;;;;;;;;;;;28.13;60.71;99563.88;4456903;32;19990;-86
2022/07/05 07:21:31;;;;;;;;;;;;;;;28.02;60.70;99573.06;4471181;32;20031;-86
2022/07/05 07:23:56;;;;;;;;;;;;;;;27.97;60.71;99579.94;4456500;32;25230;-85
2022/07/05 07:26:22;;;;;;;;;;;;;;;27.90;60.70;99581.56;4471112;32;19990;-86
2022/07/05 07:28:47;;;;;;;;;;;;;;;27.91;60.70;99578.72;4457124;32;19964;-86
2022/07/05 07:31:12;;;;;;;;;;;;;;;27.91;60.70;99583.25;4456126;32;27590;-86
2022/07/05 07:33:37;;;;;;;;;;;;;;;27.69;60.68;99574.84;4470502;32;29469;-85
2022/07/05 07:36:03;;;;;;;;;;;;;;;27.72;60.68;99577.19;4471167;32;19977;-86
2022/07/05 07:38:28;;;;;;;;;;;;;;;27.65;60.68;99570.81;4456831;32;20348;-86
2022/07/05 07:40:53;;;;;;;;;;;;;;;27.35;60.67;99576.69;4470851;32;22914;-86
2022/07/05 07:43:18;;;;;;;;;;;;;;;27.41;60.67;99573.38;4470069;32;19977;-86
2022/07/05 07:45:44;;;;;;;;;;;;;;;27.24;60.66;99574.31;4456584;32;19981;-85
2022/07/05 07:48:09;;;;;;;;;;;;;;;27.09;60.65;99568.72;4470888;32;19969;-85
2022/07/05 07:50:34;;;;;;;;;;;;;;;27.06;60.65;99574.37;4470067;32;29912;-86
2022/07/05 07:52:59;;;;;;;;;;;;;;;27.24;60.66;99574.31;4456617;32;20044;-86
2022/07/05 07:55:24;;;;;;;;;;;;;;;27.21;60.66;99573.63;4456188;32;23411;-86
2022/07/05 07:57:50;;;;;;;;;;;;;;;27.36;60.66;99576.53;4456709;32;19973;-86
2022/07/05 08:00:15;;;;;;;;;;;;;;;27.27;60.67;99574.81;4469991;32;30400;-86
2022/07/05 08:02:40;;;;;;;;;;;;;;;27.34;60.67;99572.34;4457001;32;19985;-86
2022/07/05 08:05:09;;;;;;;;;;;;;;;27.33;60.66;99574.19;4456227;32;24479;-86
2022/07/05 08:07:34;;;;;;;;;;;;;;;27.03;60.66;99575.53;4456538;32;19997;-87
2022/07/05 08:09:59;;;;;;;;;;;;;;;27.07;60.65;99573.38;4455998;32;29247;-86
2022/07/05 08:12:24;;;;;;;;;;;;;;;27.20;60.66;99579.13;4456524;32;20021;-86
2022/07/05 08:14:49;;;;;;;;;;;;;;;27.12;60.65;99579.91;4457044;32;19989;-86
2022/07/05 08:17:15;;;;;;;;;;;;;;;26.65;60.63;99584.75;4470536;32;19965;-86
2022/07/05 08:22:24;;;;;;;;;;;;;;;26.92;60.64;99589.94;4470546;32;19996;-86
2022/07/05 08:24:49;;;;;;;;;;;;;;;27.13;60.66;99586.94;4457500;32;20020;-86
2022/07/05 08:27:14;;;;;;;;;;;;;;;27.13;60.66;99602.13;4470302;32;19973;-87
2022/07/05 08:29:40;;;;;;;;;;;;;;;27.20;60.66;99587.13;4456064;32;19981;-86
2022/07/05 08:32:05;;;;;;;;;;;;;;;27.38;60.67;99595.91;4456136;32;19977;-86
2022/07/05 08:34:30;;;;;;;;;;;;;;;27.50;60.67;99591.97;4456119;32;20289;-85
2022/07/05 08:36:56;;;;;;;;;;;;;;;27.43;60.67;99592.75;4469737;32;24628;-85
2022/07/05 08:39:21;;;;;;;;;;;;;;;27.61;60.69;99589.97;4455537;32;29686;-85
2022/07/05 08:41:49;;;;;;;;;;;;;;;28.07;60.70;99592.16;4470127;32;19973;-86
2022/07/05 08:44:15;;;;;;;;;;;;;;;28.00;60.70;99590.31;4455995;32;20359;-86
2022/07/05 08:46:41;;;;;;;;;;;;;;;27.67;60.68;99598.22;4458679;32;20040;-86
2022/07/05 08:49:06;;;;;;;;;;;;;;;27.51;60.68;99611.53;4455923;32;19985;-85
2022/07/05 08:51:32;;;;;;;;;;;;;;;27.50;60.68;99600.00;4455799;32;20028;-85
2022/07/05 08:53:57;;;;;;;;;;;;;;;27.49;60.67;99566.22;4456524;32;20256;-85
2022/07/05 08:56:23;;;;;;;;;;;;;;;27.41;60.67;99605.44;4471485;32;31207;-86
2022/07/05 08:58:51;;;;;;;;;;;;;;;27.21;60.66;99604.87;4458138;32;19994;-85
2022/07/05 09:01:16;;;;;;;;;;;;;;;27.12;60.65;99601.28;4472556;32;19976;-85
2022/07/05 09:03:41;;;;;;;;;;;;;;;26.79;60.64;99607.41;4472449;32;20027;-85
2022/07/05 09:06:07;;;;;;;;;;;;;;;26.59;60.62;99609.41;4457867;32;20014;-85
2022/07/05 09:08:38;;;;;;;;;;;;;;;26.67;60.63;99611.31;4472117;32;20323;-86
2022/07/05 09:11:03;;;;;;;;;;;;;;;26.69;60.63;99609.31;4458343;32;19992;-85
2022/07/05 09:13:32;;;;;;;;;;;;;;;26.71;60.64;99613.50;4457411;32;24052;-85
2022/07/05 09:15:57;;;;;;;;;;;;;;;26.64;60.64;99598.28;4457827;32;20036;-85
2022/07/05 09:18:41;;;;;;;;;;;;;;;26.61;60.63;99605.59;4471364;32;32099;-85
2022/07/05 09:21:13;;;;;;;;;;;;;;;26.55;60.63;99605.37;4457990;32;20036;-86
2022/07/05 09:23:38;;;;;;;;;;;;;;;26.34;60.62;99599.50;4472140;32;20028;-86
2022/07/05 09:26:03;;;;;;;;;;;;;;;26.26;60.61;99592.25;4457050;32;27328;-86
2022/07/05 09:28:28;;;;;;;;;;;;;;;26.24;60.61;99595.06;4444714;32;20003;-87
2022/07/05 09:30:54;;;;;;;;;;;;;;;26.21;60.60;99595.38;4471241;32;31120;-87
2022/07/05 09:33:19;;;;;;;;;;;;;;;26.23;60.60;99604.06;4457301;32;25011;-86
2022/07/05 09:35:54;;;;;;;;;;;;;;;26.31;60.62;99604.16;4471256;32;30728;-87
2022/07/05 09:38:20;;;;;;;;;;;;;;;26.57;60.63;99606.91;4471857;32;20018;-87
2022/07/05 09:40:46;;;;;;;;;;;;;;;26.26;60.61;99598.44;4457645;32;20321;-87
2022/07/05 09:43:15;;;;;;;;;;;;;;;26.20;60.61;99598.19;4458083;32;19997;-86
2022/07/05 09:45:49;;;;;;;;;;;;;;;25.95;60.60;99595.28;4457712;32;20073;-87
2022/07/05 09:48:14;;;;;;;;;;;;;;;25.86;60.59;99606.03;4457505;32;20238;-87
2022/07/05 09:50:40;;;;;;;;;;;;;;;25.91;60.59;99617.91;4456723;32;31220;-86
2022/07/05 09:53:05;;;;;;;;;;;;;;;25.61;60.58;99640.38;4457658;32;19996;-87
2022/07/05 09:55:30;;;;;;;;;;;;;;;25.43;60.57;99643.97;4457575;32;20027;-87
2022/07/05 09:57:56;;;;;;;;;;;;;;;24.95;60.54;99651.06;4447439;32;20004;-87
2022/07/05 10:00:21;;;;;;;;;;;;;;;24.73;60.53;99670.84;4464493;32;20594;-89
2022/07/05 10:02:51;;;;;;;;;;;;;;;24.36;60.52;99669.88;4471768;32;19973;-89
2022/07/05 10:05:17;;;;;;;;;;;;;;;24.00;60.49;99672.16;4457427;32;19989;-90
2022/07/05 10:07:44;;;;;;;;;;;;;;;23.94;60.49;99685.19;4458239;32;20234;-90
2022/07/05 10:10:10;;;;;;;;;;;;;;;23.67;60.48;99688.44;4459303;32;19985;-90
2022/07/05 10:12:36;;;;;;;;;;;;;;;23.48;60.46;99689.16;4447647;32;20001;-92
2022/07/05 10:15:01;;;;;;;;;;;;;;;23.46;60.46;99685.81;4460434;32;20272;-91
2022/07/05 10:17:27;;;;;;;;;;;;;;;23.36;60.46;99683.06;4453377;32;19968;-90
2022/07/05 10:19:53;;;;;;;;;;;;;;;22.93;60.44;99691.19;4457909;32;19989;-90
2022/07/05 10:22:18;;;;;;;;;;;;;;;22.89;60.44;99692.44;4457048;32;19988;-91
2022/07/05 10:24:44;;;;;;;;;;;;;;;22.89;60.44;99693.25;4457480;32;19981;-91
2022/07/05 10:27:09;;;;;;;;;;;;;;;22.84;60.43;99692.81;4457498;32;19981;-92
2022/07/05 10:29:35;;;;;;;;;;;;;;;22.65;60.42;99708.53;4457216;32;19992;-91
2022/07/05 10:32:01;;;;;;;;;;;;;;;22.50;60.42;99704.53;4444520;32;19992;-93
2022/07/05 10:34:26;;;;;;;;;;;;;;;22.50;60.42;99694.75;4457822;32;19977;-93
2022/07/05 10:36:51;;;;;;;;;;;;;;;22.57;60.42;99687.13;4444390;32;20328;-93
2022/07/05 10:39:16;;;;;;;;;;;;;;;22.70;60.42;99695.72;4458155;32;20226;-91
2022/07/05 10:41:42;;;;;;;;;;;;;;;22.73;60.43;99705.28;4444216;32;20087;-91
2022/07/05 10:44:07;;;;;;;;;;;;;;;22.65;60.43;99701.44;4444903;32;19991;-91
2022/07/05 10:46:35;;;;;;;;;;;;;;;22.67;60.42;99706.59;4457597;32;19969;-92
2022/07/05 10:49:13;;;;;;;;;;;;;;;22.46;60.41;99708.38;4457246;32;19985;-92
2022/07/05 10:51:38;;;;;;;;;;;;;;;22.51;60.41;99706.19;4457404;32;19993;-91
2022/07/05 10:54:04;;;;;;;;;;;;;;;22.52;60.42;99710.53;4457431;32;19976;-92
2022/07/05 10:56:29;;;;;;;;;;;;;;;22.32;60.40;99709.50;4457443;32;19992;-91
2022/07/05 10:59:04;;;;;;;;;;;;;;;22.38;60.41;99703.69;4444372;32;19995;-91
2022/07/05 11:01:33;;;;;;;;;;;;;;;22.56;60.42;99707.50;4457871;32;20053;-91
2022/07/05 11:04:01;;;;;;;;;;;;;;;22.64;60.42;99714.81;4458049;32;20059;-91
2022/07/05 11:06:27;;;;;;;;;;;;;;;22.70;60.41;99722.25;4458658;32;19985;-91
2022/07/05 11:09:07;;;;;;;;;;;;;;;22.81;60.43;99719.63;4457943;32;20093;-90
2022/07/05 11:11:33;;;;;;;;;;;;;;;22.95;60.43;99715.81;4471364;32;20003;-92
2022/07/05 11:13:59;;;;;;;;;;;;;;;23.15;60.44;99727.41;4444170;32;19984;-92
2022/07/05 11:16:31;;;;;;;;;;;;;;;23.19;60.45;99739.47;4457062;32;19973;-91
2022/07/05 11:19:06;;;;;;;;;;;;;;;23.13;60.44;99726.69;4457127;32;20046;-92
2022/07/05 11:21:31;;;;;;;;;;;;;;;23.35;60.45;99729.19;4457518;32;19997;-91
2022/07/05 11:24:15;;;;;;;;;;;;;;;23.57;60.47;99731.75;4457263;32;19991;-91
2022/07/05 11:26:41;;;;;;;;;;;;;;;23.63;60.46;99729.53;4471943;32;19992;-91
2022/07/05 11:29:06;;;;;;;;;;;;;;;23.63;60.46;99709.09;4459322;32;19989;-93
2022/07/05 11:31:49;;;;;;;;;;;;;;;23.46;60.45;99705.22;4459548;32;20050;-92
2022/07/05 11:34:17;;;;;;;;;;;;;;;23.40;60.45;99692.47;4459231;32;19988;-92
2022/07/05 11:36:42;;;;;;;;;;;;;;;23.48;60.45;99678.53;4460100;32;19991;-91
2022/07/05 11:39:15;;;;;;;;;;;;;;;23.56;60.46;99687.53;4457473;32;25473;-91
2022/07/05 11:41:41;;;;;;;;;;;;;;;23.67;60.47;99688.44;4459219;32;19997;-92
2022/07/05 11:44:08;;;;;;;;;;;;;;;23.91;60.48;99696.09;4462545;32;19958;-92
2022/07/05 11:46:33;;;;;;;;;;;;;;;23.99;60.48;99690.91;4447473;32;19995;-91
2022/07/05 11:48:59;;;;;;;;;;;;;;;24.01;60.48;99703.09;4456877;32;19976;-92
2022/07/05 11:51:24;;;;;;;;;;;;;;;24.08;60.49;99690.94;4456753;32;19996;-91
2022/07/05 11:53:49;;;;;;;;;;;;;;;24.19;60.49;99697.97;4456945;32;20012;-92
2022/07/05 11:56:15;;;;;;;;;;;;;;;24.29;60.50;99684.72;4459261;32;19984;-92
2022/07/05 11:58:40;;;;;;;;;;;;;;;24.21;60.50;99685.38;4443771;32;20011;-91
2022/07/05 12:01:06;;;;;;;;;;;;;;;24.16;60.48;99672.50;4456897;32;20003;-92
2022/07/05 12:03:31;;;;;;;;;;;;;;;24.09;60.48;99660.69;4471221;32;20009;-92
2022/07/05 12:05:56;;;;;;;;;;;;;;;24.06;60.49;99652.16;4470970;32;20238;-91
2022/07/05 12:08:22;;;;;;;;;;;;;;;23.99;60.48;99659.00;4443744;32;20397;-91
2022/07/05 12:13:42;;;;;;;;;;;;;;;24.23;60.49;99658.63;4459147;32;20359;-90
2022/07/05 12:16:07;;;;;;;;;;;;;;;24.19;60.48;99650.09;4457093;32;20030;-91
2022/07/05 12:18:45;;;;;;;;;;;;;;;24.26;60.49;99653.88;4456613;32;19993;-91
2022/07/05 12:21:14;;;;;;;;;;;;;;;24.34;60.50;99654.03;4456702;32;20630;-91
2022/07/05 12:23:41;;;;;;;;;;;;;;;24.35;60.49;99654.88;4443615;32;20041;-91
2022/07/05 12:26:06;;;;;;;;;;;;;;;24.37;60.50;99658.25;4443745;32;20403;-93
2022/07/05 12:28:31;;;;;;;;;;;;;;;24.41;60.49;99663.16;4443898;32;20039;-92
2022/07/05 12:30:57;;;;;;;;;;;;;;;24.47;60.51;99664.44;4459056;32;20317;-93
2022/07/05 12:33:23;;;;;;;;;;;;;;;24.55;60.51;99656.56;4446356;32;20819;-92
2022/07/05 12:35:50;;;;;;;;;;;;;;;24.44;60.49;99664.72;4445595;32;20074;-94
2022/07/05 12:38:16;;;;;;;;;;;;;;;24.29;60.50;99660.75;4445976;32;19989;-93
2022/07/05 12:40:42;;;;;;;;;;;;;;;24.08;60.49;99669.66;4430253;32;890207;-93
2022/07/05 12:43:07;;;;;;;;;;;;;;;24.10;60.48;99664.19;4446630;32;20325;-93
2022/07/05 12:45:33;;;;;;;;;;;;;;;24.13;60.49;99667.44;4458508;32;19995;-93
2022/07/05 12:47:59;;;;;;;;;;;;;;;24.10;60.48;99662.38;4458619;32;19993;-94
2022/07/05 12:50:25;;;;;;;;;;;;;;;24.05;60.47;99653.97;4445634;32;20341;-93
2022/07/05 12:52:54;;;;;;;;;;;;;;;24.03;60.47;99649.78;4447880;32;20339;-93
2022/07/05 12:58:04;;;;;;;;;;;;;;;23.41;60.44;99638.34;4460761;32;20105;-93